createdAt,value
2019-03-19T00:00:31.534Z,19.50
2019-03-19T00:03:00.153Z,19.57
2019-03-19T00:05:28.654Z,18.30
2019-03-19T00:07:57.293Z,18.98
2019-03-19T00:10:25.872Z,18.90
2019-03-19T00:12:54.418Z,18.60
2019-03-19T00:15:23.053Z,19.02
2019-03-19T00:17:51.601Z,19.70
2019-03-19T00:20:20.121Z,17.80
2019-03-19T00:22:48.687Z,17.55
2019-03-19T00:25:17.245Z,16.80
2019-03-19T00:27:45.790Z,16.77
2019-03-19T00:30:15.707Z,17.37
2019-03-19T00:32:44.251Z,18.47
2019-03-19T00:35:13.257Z,16.40
2019-03-19T00:37:41.927Z,17.20
2019-03-19T00:40:12.880Z,16.65
2019-03-19T00:42:41.531Z,15.80
2019-03-19T00:45:11.898Z,15.60
2019-03-19T00:47:40.579Z,16.77
2019-03-19T00:50:17.141Z,16.55
2019-03-19T00:52:45.692Z,16.90
2019-03-19T00:55:14.405Z,16.77
2019-03-19T00:57:42.949Z,15.35
2019-03-19T01:00:13.472Z,16.37
2019-03-19T01:02:42.069Z,16.02
2019-03-19T01:05:10.944Z,16.70
2019-03-19T01:07:39.605Z,15.13
2019-03-19T01:10:17.251Z,14.85
2019-03-19T01:12:45.055Z,16.17
2019-03-19T01:15:14.463Z,17.00
2019-03-19T01:17:43.068Z,16.48
2019-03-19T01:20:14.288Z,16.73
2019-03-19T01:22:42.833Z,16.97
2019-03-19T01:25:11.649Z,17.50
2019-03-19T01:27:40.266Z,17.60
2019-03-19T01:30:15.970Z,17.07
2019-03-19T01:32:44.523Z,17.45
2019-03-19T01:35:14.097Z,18.70
2019-03-19T01:37:42.639Z,18.50
2019-03-19T01:40:12.268Z,17.87
2019-03-19T01:42:40.808Z,17.52
2019-03-19T01:45:13.336Z,18.23
2019-03-19T01:47:42.265Z,18.07
2019-03-19T01:50:15.131Z,18.17
2019-03-19T01:52:43.854Z,17.70
2019-03-19T01:55:15.884Z,16.67
2019-03-19T01:57:44.438Z,15.72
2019-03-19T02:00:15.136Z,16.20
2019-03-19T02:02:43.934Z,16.67
2019-03-19T02:05:12.639Z,16.65
2019-03-19T02:07:41.200Z,16.57
2019-03-19T02:10:13.567Z,15.90
2019-03-19T02:12:42.352Z,16.52
2019-03-19T02:15:18.096Z,16.07
2019-03-19T02:17:46.669Z,16.17
2019-03-19T02:20:18.290Z,16.37
2019-03-19T02:22:46.905Z,15.30
2019-03-19T02:25:15.579Z,14.05
2019-03-19T02:27:44.122Z,13.35
2019-03-19T02:30:16.220Z,12.78
2019-03-19T02:32:44.765Z,12.45
2019-03-19T02:35:13.320Z,12.45
2019-03-19T02:37:42.147Z,11.05
2019-03-19T02:40:17.407Z,10.90
2019-03-19T02:42:46.054Z,11.70
2019-03-19T02:45:17.387Z,11.35
2019-03-19T02:47:45.906Z,10.40
2019-03-19T02:50:17.994Z,9.70
2019-03-19T02:52:46.611Z,10.75
2019-03-19T02:55:15.495Z,10.30
2019-03-19T02:57:44.119Z,11.00
2019-03-19T03:00:14.957Z,10.80
2019-03-19T03:02:43.673Z,10.65
2019-03-19T03:05:16.250Z,10.28
2019-03-19T03:07:44.811Z,10.10
2019-03-19T03:10:14.000Z,10.80
2019-03-19T03:12:42.572Z,10.45
2019-03-19T03:15:12.656Z,9.75
2019-03-19T03:17:41.216Z,10.10
2019-03-19T03:20:11.393Z,10.03
2019-03-19T03:22:39.970Z,9.40
2019-03-19T03:25:11.187Z,9.90
2019-03-19T03:27:39.840Z,9.90
2019-03-19T03:30:19.811Z,10.30
2019-03-19T03:32:48.374Z,10.30
2019-03-19T03:35:16.928Z,11.03
2019-03-19T03:37:45.563Z,10.27
2019-03-19T03:40:17.670Z,11.00
2019-03-19T03:42:46.270Z,10.70
2019-03-19T03:45:17.124Z,10.38
2019-03-19T03:47:45.803Z,10.20
2019-03-19T03:50:15.390Z,10.08
2019-03-19T03:52:44.012Z,10.57
2019-03-19T03:55:14.651Z,9.80
2019-03-19T03:57:43.204Z,10.00
2019-03-19T04:00:14.396Z,9.70
2019-03-19T04:02:44.846Z,10.75
2019-03-19T04:05:13.393Z,11.25
2019-03-19T04:07:41.879Z,10.10
2019-03-19T04:10:18.061Z,9.93
2019-03-19T04:12:46.776Z,9.93
2019-03-19T04:15:16.362Z,10.85
2019-03-19T04:17:44.934Z,10.08
2019-03-19T04:20:14.425Z,10.30
2019-03-19T04:22:42.986Z,9.70
2019-03-19T04:25:11.970Z,10.00
2019-03-19T04:27:41.110Z,9.40
2019-03-19T04:30:12.997Z,9.40
2019-03-19T04:32:41.569Z,10.13
2019-03-19T04:35:10.237Z,8.83
2019-03-19T04:37:38.736Z,9.60
2019-03-19T04:40:10.022Z,10.20
2019-03-19T04:42:38.608Z,10.30
2019-03-19T04:45:15.267Z,10.00
2019-03-19T04:47:43.901Z,10.30
2019-03-19T04:50:15.799Z,10.68
2019-03-19T04:52:44.510Z,10.93
2019-03-19T04:55:16.478Z,11.35
2019-03-19T04:57:44.977Z,11.60
2019-03-19T05:00:15.736Z,10.48
2019-03-19T05:02:44.308Z,10.90
2019-03-19T05:05:13.645Z,10.90
2019-03-19T05:07:42.213Z,11.13
2019-03-19T05:10:13.830Z,11.00
2019-03-19T05:12:42.465Z,11.10
2019-03-19T05:15:11.253Z,9.93
2019-03-19T05:17:39.886Z,10.08
2019-03-19T05:20:13.142Z,10.00
2019-03-19T05:22:41.702Z,10.80
2019-03-19T05:25:10.849Z,9.28
2019-03-19T05:27:39.432Z,9.60
2019-03-19T05:30:17.041Z,9.00
2019-03-19T05:32:45.606Z,9.20
2019-03-19T05:35:14.167Z,9.78
2019-03-19T05:37:42.700Z,8.78
2019-03-19T05:40:13.526Z,8.68
2019-03-19T05:42:42.139Z,9.30
2019-03-19T05:45:12.337Z,8.73
2019-03-19T05:47:41.001Z,9.00
2019-03-19T05:50:15.410Z,8.10
2019-03-19T05:52:43.954Z,9.40
2019-03-19T05:55:12.600Z,9.68
2019-03-19T05:57:49.339Z,9.00
2019-03-19T06:00:13.378Z,9.38
2019-03-19T06:02:41.945Z,9.20
2019-03-19T06:05:11.863Z,9.78
2019-03-19T06:07:40.402Z,15.43
2019-03-19T06:10:11.472Z,10.05
2019-03-19T06:12:39.936Z,9.93
2019-03-19T06:15:10.765Z,10.00
2019-03-19T06:17:39.441Z,10.25
2019-03-19T06:20:11.350Z,9.20
2019-03-19T06:22:39.905Z,10.00
2019-03-19T06:25:10.731Z,8.93
2019-03-19T06:27:39.277Z,8.75
2019-03-19T06:30:18.765Z,9.50
2019-03-19T06:32:47.542Z,9.17
2019-03-19T06:35:16.565Z,9.23
2019-03-19T06:37:45.210Z,9.33
2019-03-19T06:40:15.086Z,8.75
2019-03-19T06:42:43.758Z,8.63
2019-03-19T06:45:16.557Z,9.40
2019-03-19T06:47:45.184Z,9.18
2019-03-19T06:50:17.114Z,9.10
2019-03-19T06:52:45.719Z,9.38
2019-03-19T06:55:15.526Z,8.30
2019-03-19T06:57:44.075Z,9.20
2019-03-19T07:00:21.400Z,9.90
2019-03-19T07:02:50.085Z,9.45
2019-03-19T07:05:19.430Z,8.98
2019-03-19T07:07:47.965Z,8.38
2019-03-19T07:10:17.388Z,9.48
2019-03-19T07:12:45.926Z,8.65
2019-03-19T07:15:16.916Z,9.08
2019-03-19T07:17:45.387Z,8.30
2019-03-19T07:20:19.369Z,8.60
2019-03-19T07:22:47.843Z,9.05
2019-03-19T07:25:16.404Z,8.23
2019-03-19T07:27:45.004Z,6.58
2019-03-19T07:30:16.213Z,7.37
2019-03-19T07:32:44.760Z,8.00
2019-03-19T07:35:13.408Z,7.70
2019-03-19T07:37:41.946Z,7.67
2019-03-19T07:40:12.899Z,7.15
2019-03-19T07:42:41.606Z,7.55
2019-03-19T07:45:23.450Z,8.35
2019-03-19T07:47:51.976Z,7.75
2019-03-19T07:50:22.618Z,8.10
2019-03-19T07:52:51.247Z,8.00
2019-03-19T07:55:19.813Z,8.88
2019-03-19T07:57:48.349Z,8.57
2019-03-19T08:00:18.148Z,8.40
2019-03-19T08:02:46.961Z,8.30
2019-03-19T08:05:15.648Z,8.20
2019-03-19T08:07:44.265Z,8.80
2019-03-19T08:10:14.950Z,8.10
2019-03-19T08:12:43.488Z,7.83
2019-03-19T08:15:16.646Z,8.43
2019-03-19T08:17:45.205Z,8.60
2019-03-19T08:20:14.607Z,8.55
2019-03-19T08:22:43.130Z,8.55
2019-03-19T08:25:14.781Z,8.57
2019-03-19T08:27:43.307Z,8.80
2019-03-19T08:30:16.888Z,8.00
2019-03-19T08:32:45.493Z,8.65
2019-03-19T08:35:14.289Z,8.18
2019-03-19T08:37:42.928Z,8.63
2019-03-19T08:40:19.116Z,8.83
2019-03-19T08:42:47.648Z,8.15
2019-03-19T08:45:18.594Z,8.20
2019-03-19T08:47:47.176Z,8.68
2019-03-19T08:50:17.239Z,7.58
2019-03-19T08:52:45.806Z,7.95
2019-03-19T08:55:14.345Z,8.03
2019-03-19T08:57:42.833Z,8.13
2019-03-19T09:00:16.769Z,8.60
2019-03-19T09:02:45.264Z,8.40
2019-03-19T09:05:13.865Z,7.97
2019-03-19T09:07:42.420Z,7.45
2019-03-19T09:10:15.277Z,7.43
2019-03-19T09:12:43.849Z,7.80
2019-03-19T09:15:13.906Z,9.10
2019-03-19T09:17:42.824Z,9.57
2019-03-19T09:20:13.487Z,9.45
2019-03-19T09:22:42.050Z,9.67
2019-03-19T09:25:11.543Z,9.28
2019-03-19T09:27:40.354Z,9.10
2019-03-19T09:30:17.058Z,8.53
2019-03-19T09:32:45.557Z,8.93
2019-03-19T09:35:14.340Z,9.45
2019-03-19T09:37:44.842Z,8.60
2019-03-19T09:40:19.938Z,9.33
2019-03-19T09:42:48.433Z,8.80
2019-03-19T09:45:17.727Z,7.92
2019-03-19T09:47:46.840Z,8.30
2019-03-19T09:50:22.405Z,8.00
2019-03-19T09:52:50.967Z,9.60
2019-03-19T09:55:19.590Z,9.73
2019-03-19T09:57:48.229Z,9.40
2019-03-19T10:00:23.174Z,8.98
2019-03-19T10:02:51.740Z,9.40
2019-03-19T10:05:20.439Z,9.10
2019-03-19T10:07:49.005Z,9.40
2019-03-19T10:10:18.684Z,8.78
2019-03-19T10:12:47.348Z,9.10
2019-03-19T10:15:16.543Z,8.80
2019-03-19T10:17:45.099Z,8.18
2019-03-19T10:20:17.719Z,9.35
2019-03-19T10:22:46.030Z,9.90
2019-03-19T10:25:15.610Z,9.50
2019-03-19T10:27:44.238Z,8.35
2019-03-19T10:30:15.868Z,8.95
2019-03-19T10:32:44.535Z,9.80
2019-03-19T10:35:13.226Z,10.20
2019-03-19T10:37:41.789Z,9.95
2019-03-19T10:40:12.226Z,9.90
2019-03-19T10:42:40.800Z,8.60
2019-03-19T10:45:14.389Z,8.87
2019-03-19T10:47:43.101Z,8.33
2019-03-19T10:50:21.490Z,8.60
2019-03-19T10:52:50.146Z,7.55
2019-03-19T10:55:18.814Z,6.75
2019-03-19T10:57:47.536Z,8.10
2019-03-19T11:00:19.461Z,7.58
2019-03-19T11:02:48.113Z,8.00
2019-03-19T11:05:17.083Z,6.60
2019-03-19T11:07:45.630Z,6.90
2019-03-19T11:10:18.151Z,6.70
2019-03-19T11:12:46.781Z,7.47
2019-03-19T11:15:22.964Z,6.42
2019-03-19T11:17:51.774Z,5.80
2019-03-19T11:20:20.855Z,7.30
2019-03-19T11:22:49.497Z,7.50
2019-03-19T11:25:20.397Z,8.60
2019-03-19T11:27:49.003Z,7.42
2019-03-19T11:30:19.444Z,5.90
2019-03-19T11:32:48.009Z,6.20
2019-03-19T11:35:17.455Z,6.50
2019-03-19T11:37:46.185Z,5.90
2019-03-19T11:40:16.397Z,6.60
2019-03-19T11:42:44.957Z,7.85
2019-03-19T11:45:21.085Z,5.42
2019-03-19T11:47:49.649Z,6.00
2019-03-19T11:50:25.329Z,5.95
2019-03-19T11:52:53.990Z,4.67
2019-03-19T11:55:23.382Z,5.30
2019-03-19T11:57:52.042Z,5.20
2019-03-19T12:00:26.512Z,3.95
2019-03-19T12:02:55.160Z,4.30
2019-03-19T12:05:23.761Z,4.00
2019-03-19T12:07:52.249Z,3.90
2019-03-19T12:10:20.718Z,5.40
2019-03-19T12:12:49.290Z,7.33
2019-03-19T12:15:17.905Z,5.97
2019-03-19T12:17:48.724Z,6.80
2019-03-19T12:20:16.650Z,6.70
2019-03-19T12:22:45.213Z,7.30
2019-03-19T12:25:14.232Z,7.03
2019-03-19T12:27:42.890Z,6.03
2019-03-19T12:30:22.149Z,6.15
2019-03-19T12:32:44.996Z,4.67
2019-03-19T12:35:14.011Z,4.90
2019-03-19T12:37:42.544Z,8.37
2019-03-19T12:40:19.105Z,7.00
2019-03-19T12:42:47.645Z,5.40
2019-03-19T12:45:18.240Z,5.50
2019-03-19T12:47:46.775Z,7.58
2019-03-19T12:50:23.235Z,5.20
2019-03-19T12:52:51.926Z,5.78
2019-03-19T12:55:20.633Z,5.50
2019-03-19T12:57:49.363Z,5.90
2019-03-19T13:00:21.000Z,5.53
2019-03-19T13:02:49.605Z,5.93
2019-03-19T13:05:18.333Z,5.20
2019-03-19T13:07:46.882Z,6.10
2019-03-19T13:10:19.676Z,7.50
2019-03-19T13:12:48.276Z,5.17
2019-03-19T13:15:19.249Z,5.00
2019-03-19T13:17:48.033Z,5.20
2019-03-19T13:20:18.591Z,5.00
2019-03-19T13:22:47.053Z,4.80
2019-03-19T13:25:18.154Z,5.00
2019-03-19T13:27:46.773Z,4.17
2019-03-19T13:30:17.371Z,4.50
2019-03-19T13:32:45.829Z,5.50
2019-03-19T13:35:14.542Z,6.13
2019-03-19T13:37:43.080Z,5.67
2019-03-19T13:40:14.728Z,5.25
2019-03-19T13:42:43.274Z,5.50
2019-03-19T13:45:14.260Z,5.10
2019-03-19T13:47:43.138Z,6.10
2019-03-19T13:50:17.166Z,5.67
2019-03-19T13:52:45.780Z,5.20
2019-03-19T13:55:17.373Z,5.78
2019-03-19T13:57:45.929Z,5.45
2019-03-19T14:00:16.176Z,5.80
2019-03-19T14:02:44.766Z,5.80
2019-03-19T14:05:14.376Z,6.37
2019-03-19T14:07:42.987Z,5.93
2019-03-19T14:10:20.673Z,5.90
2019-03-19T14:12:49.294Z,5.72
2019-03-19T14:15:23.539Z,5.72
2019-03-19T14:17:52.045Z,6.08
2019-03-19T14:20:20.616Z,5.60
2019-03-19T14:22:49.224Z,5.70
2019-03-19T14:25:17.953Z,5.28
2019-03-19T14:27:46.493Z,5.37
2019-03-19T14:30:19.950Z,5.42
2019-03-19T14:32:48.818Z,5.30
2019-03-19T14:35:17.393Z,5.53
2019-03-19T14:37:46.369Z,5.25
2019-03-19T14:40:21.882Z,4.92
2019-03-19T14:42:50.485Z,5.50
2019-03-19T14:45:19.109Z,5.20
2019-03-19T14:47:47.656Z,5.00
2019-03-19T14:50:17.449Z,4.83
2019-03-19T14:52:45.917Z,4.60
2019-03-19T14:55:14.553Z,4.70
2019-03-19T14:57:43.167Z,4.58
2019-03-19T15:00:14.346Z,4.25
2019-03-19T15:02:43.029Z,4.60
2019-03-19T15:05:13.055Z,4.70
2019-03-19T15:07:41.591Z,4.87
2019-03-19T15:10:12.725Z,4.78
2019-03-19T15:12:41.268Z,5.15
2019-03-19T15:15:14.826Z,5.08
2019-03-19T15:17:43.365Z,4.80
2019-03-19T15:20:19.853Z,5.10
2019-03-19T15:22:48.389Z,4.70
2019-03-19T15:25:16.951Z,5.10
2019-03-19T15:27:45.665Z,4.80
2019-03-19T15:30:16.172Z,4.75
2019-03-19T15:32:45.140Z,4.67
2019-03-19T15:35:13.906Z,4.33
2019-03-19T15:37:42.672Z,4.05
2019-03-19T15:40:17.952Z,4.10
2019-03-19T15:42:46.575Z,3.55
2019-03-19T15:45:17.058Z,4.35
2019-03-19T15:47:45.604Z,4.00
2019-03-19T15:50:15.213Z,3.90
2019-03-19T15:52:44.125Z,4.10
2019-03-19T15:55:14.437Z,4.45
2019-03-19T15:57:43.068Z,3.80
2019-03-19T16:00:14.694Z,3.80
2019-03-19T16:02:43.459Z,3.80
2019-03-19T16:05:13.241Z,6.10
2019-03-19T16:07:41.841Z,4.10
2019-03-19T16:10:14.221Z,3.70
2019-03-19T16:12:42.776Z,3.50
2019-03-19T16:15:17.291Z,3.52
2019-03-19T16:17:45.894Z,4.33
2019-03-19T16:20:19.225Z,3.40
2019-03-19T16:22:47.780Z,3.52
2019-03-19T16:25:16.431Z,3.25
2019-03-19T16:27:45.052Z,3.77
2019-03-19T16:30:15.159Z,3.47
2019-03-19T16:32:43.801Z,3.45
2019-03-19T16:35:13.092Z,3.40
2019-03-19T16:37:41.720Z,3.30
2019-03-19T16:40:17.740Z,3.00
2019-03-19T16:42:46.390Z,3.15
2019-03-19T16:45:14.908Z,2.90
2019-03-19T16:47:43.449Z,3.30
2019-03-19T16:50:20.910Z,3.10
2019-03-19T16:52:49.536Z,2.90
2019-03-19T16:55:19.060Z,3.25
2019-03-19T16:57:47.620Z,2.90
2019-03-19T17:00:24.910Z,3.30
2019-03-19T17:02:53.409Z,2.70
2019-03-19T17:05:22.079Z,3.40
2019-03-19T17:07:50.624Z,3.45
2019-03-19T17:10:26.455Z,3.40
2019-03-19T17:12:55.021Z,2.80
2019-03-19T17:15:23.486Z,3.00
2019-03-19T17:17:52.190Z,2.90
2019-03-19T17:20:20.837Z,3.00
2019-03-19T17:22:49.467Z,3.70
2019-03-19T17:25:25.681Z,3.13
2019-03-19T17:27:54.258Z,2.65
2019-03-19T17:30:27.701Z,3.00
2019-03-19T17:32:56.277Z,3.10
2019-03-19T17:35:24.881Z,3.00
2019-03-19T17:37:53.456Z,2.85
2019-03-19T17:40:21.957Z,3.20
2019-03-19T17:42:50.666Z,3.67
2019-03-19T17:45:19.377Z,3.00
2019-03-19T17:47:47.946Z,3.20
2019-03-19T17:50:27.866Z,3.60
2019-03-19T17:52:56.917Z,3.00
2019-03-19T17:55:25.555Z,3.30
2019-03-19T17:57:54.115Z,3.80
2019-03-19T18:00:35.950Z,3.85
2019-03-19T18:03:04.750Z,3.70
2019-03-19T18:05:33.478Z,3.70
2019-03-19T18:08:02.047Z,3.22
2019-03-19T18:10:30.586Z,3.10
2019-03-19T18:12:59.067Z,2.95
2019-03-19T18:15:38.137Z,2.80
2019-03-19T18:18:07.028Z,3.22
2019-03-19T18:20:35.565Z,2.70
2019-03-19T18:23:04.124Z,2.90
2019-03-19T18:25:32.678Z,2.70
2019-03-19T18:28:01.234Z,3.10
2019-03-19T18:30:29.769Z,3.30
2019-03-19T18:32:58.329Z,3.02
2019-03-19T18:35:26.788Z,2.90
2019-03-19T18:37:55.268Z,3.00
2019-03-19T18:40:23.734Z,3.10
2019-03-19T18:42:52.319Z,3.00
2019-03-19T18:45:21.389Z,3.10
2019-03-19T18:47:49.938Z,3.00
2019-03-19T18:50:21.975Z,3.00
2019-03-19T18:52:50.608Z,2.90
2019-03-19T18:55:19.150Z,3.95
2019-03-19T18:57:47.848Z,3.40
2019-03-19T19:00:17.506Z,3.42
2019-03-19T19:02:50.156Z,3.80
2019-03-19T19:05:17.203Z,3.30
2019-03-19T19:07:45.773Z,3.58
2019-03-19T19:10:16.210Z,2.77
2019-03-19T19:12:44.702Z,3.67
2019-03-19T19:15:25.445Z,3.20
2019-03-19T19:17:54.005Z,3.52
2019-03-19T19:20:22.799Z,3.00
2019-03-19T19:22:51.289Z,3.50
2019-03-19T19:25:21.309Z,3.90
2019-03-19T19:27:49.897Z,3.90
2019-03-19T19:30:29.083Z,3.90
2019-03-19T19:33:02.171Z,4.05
2019-03-19T19:35:27.837Z,4.30
2019-03-19T19:37:56.336Z,4.25
2019-03-19T19:40:24.910Z,4.33
2019-03-19T19:42:53.452Z,4.37
2019-03-19T19:45:22.008Z,4.00
2019-03-19T19:47:50.555Z,4.00
2019-03-19T19:50:21.013Z,4.80
2019-03-19T19:52:49.700Z,4.10
2019-03-19T19:55:18.310Z,3.85
2019-03-19T19:57:47.145Z,4.47
2019-03-19T20:00:17.606Z,4.40
2019-03-19T20:02:46.508Z,4.72
2019-03-19T20:05:15.276Z,4.37
2019-03-19T20:07:43.811Z,4.30
2019-03-19T20:10:23.425Z,3.90
2019-03-19T20:12:51.961Z,5.00
2019-03-19T20:15:20.512Z,4.37
2019-03-19T20:17:49.077Z,4.50
2019-03-19T20:20:22.696Z,4.25
2019-03-19T20:22:51.259Z,4.62
2019-03-19T20:25:19.819Z,4.92
2019-03-19T20:27:48.350Z,4.57
2019-03-19T20:30:21.889Z,6.95
2019-03-19T20:32:50.429Z,5.10
2019-03-19T20:35:18.988Z,4.90
2019-03-19T20:37:47.538Z,5.67
2019-03-19T20:40:17.058Z,6.20
2019-03-19T20:42:45.940Z,6.30
2019-03-19T20:45:15.845Z,6.78
2019-03-19T20:47:44.306Z,8.53
2019-03-19T20:50:29.938Z,6.70
2019-03-19T20:52:58.491Z,7.10
2019-03-19T20:55:27.225Z,6.90
2019-03-19T20:57:55.764Z,8.50
2019-03-19T21:00:24.468Z,9.63
2019-03-19T21:02:53.157Z,11.40
2019-03-19T21:05:21.717Z,19.77
2019-03-19T21:07:50.253Z,13.85
2019-03-19T21:10:20.866Z,12.07
2019-03-19T21:12:49.661Z,11.70
2019-03-19T21:15:20.780Z,13.25
2019-03-19T21:17:49.676Z,11.65
2019-03-19T21:20:18.250Z,11.60
2019-03-19T21:22:46.861Z,10.90
2019-03-19T21:25:15.430Z,10.58
2019-03-19T21:27:44.138Z,10.53
2019-03-19T21:30:17.781Z,11.28
2019-03-19T21:32:46.474Z,11.93
2019-03-19T21:35:16.292Z,11.18
2019-03-19T21:37:44.784Z,11.80
2019-03-19T21:40:14.529Z,11.48
2019-03-19T21:42:43.185Z,12.05
2019-03-19T21:45:14.165Z,12.95
2019-03-19T21:47:42.727Z,11.12
2019-03-19T21:50:23.074Z,13.30
2019-03-19T21:52:51.693Z,12.45
2019-03-19T21:55:20.257Z,13.30
2019-03-19T21:57:48.747Z,13.53
2019-03-19T22:00:27.508Z,12.80
2019-03-19T22:02:56.056Z,12.90
2019-03-19T22:05:24.628Z,13.90
2019-03-19T22:07:53.167Z,13.28
2019-03-19T22:10:22.380Z,13.68
2019-03-19T22:12:50.866Z,13.30
2019-03-19T22:15:23.828Z,12.90
2019-03-19T22:17:53.356Z,14.03
2019-03-19T22:20:22.118Z,13.13
2019-03-19T22:22:50.729Z,14.47
2019-03-19T22:25:19.436Z,13.77
2019-03-19T22:27:47.981Z,13.83
2019-03-19T22:30:18.222Z,14.90
2019-03-19T22:32:46.765Z,13.00
2019-03-19T22:35:15.436Z,11.70
2019-03-19T22:37:44.064Z,10.73
2019-03-19T22:40:18.105Z,11.27
2019-03-19T22:42:47.051Z,17.05
2019-03-19T22:45:17.642Z,12.50
2019-03-19T22:47:46.261Z,11.00
2019-03-19T22:50:16.733Z,11.23
2019-03-19T22:52:45.279Z,11.27
2019-03-19T22:55:14.651Z,12.30
2019-03-19T22:57:43.462Z,12.50
2019-03-19T23:00:19.306Z,12.60
2019-03-19T23:02:47.858Z,11.93
2019-03-19T23:05:16.500Z,11.63
2019-03-19T23:07:45.057Z,11.78
2019-03-19T23:10:13.621Z,10.70
2019-03-19T23:12:42.337Z,10.20
2019-03-19T23:15:12.285Z,10.73
2019-03-19T23:17:41.064Z,10.55
2019-03-19T23:20:14.292Z,10.10
2019-03-19T23:22:42.831Z,10.40
2019-03-19T23:25:11.754Z,11.07
2019-03-19T23:27:40.293Z,11.90
2019-03-19T23:30:16.419Z,11.15
2019-03-19T23:32:45.362Z,11.03
2019-03-19T23:35:13.997Z,10.98
2019-03-19T23:37:42.471Z,11.20
2019-03-19T23:40:13.946Z,10.53
2019-03-19T23:42:42.457Z,11.53
2019-03-19T23:45:12.143Z,10.75
2019-03-19T23:47:40.790Z,9.90
2019-03-19T23:50:12.039Z,11.60
2019-03-19T23:52:40.735Z,11.20
2019-03-19T23:55:09.972Z,10.40
2019-03-19T23:57:38.554Z,9.73
